createdAt,value
2022-12-11T00:00:59.481Z,4.08
2022-12-11T00:04:03.306Z,4.37
2022-12-11T00:07:07.355Z,4.41
2022-12-11T00:10:11.352Z,4.46
2022-12-11T00:13:15.293Z,3.51
2022-12-11T00:16:23.754Z,3.42
2022-12-11T00:19:30.518Z,3.28
2022-12-11T00:22:34.431Z,3.45
2022-12-11T00:25:38.624Z,3.60
2022-12-11T00:28:42.694Z,3.35
2022-12-11T00:31:46.695Z,3.12
2022-12-11T00:34:50.678Z,3.07
2022-12-11T00:37:54.724Z,3.27
2022-12-11T00:40:58.664Z,3.39
2022-12-11T00:44:02.648Z,3.57
2022-12-11T00:47:06.478Z,3.38
2022-12-11T00:50:10.435Z,3.08
2022-12-11T00:53:14.427Z,3.02
2022-12-11T00:56:18.414Z,3.42
2022-12-11T00:59:22.423Z,3.16
2022-12-11T01:02:26.242Z,3.30
2022-12-11T01:05:30.494Z,3.09
2022-12-11T01:08:38.536Z,3.52
2022-12-11T01:11:42.774Z,3.09
2022-12-11T01:14:47.089Z,2.97
2022-12-11T01:17:52.245Z,3.10
2022-12-11T01:20:56.087Z,2.88
2022-12-11T01:24:00.185Z,3.14
2022-12-11T01:27:04.181Z,3.11
2022-12-11T01:30:08.018Z,3.14
2022-12-11T01:33:11.923Z,2.84
2022-12-11T01:36:15.723Z,3.09
2022-12-11T01:39:19.762Z,3.03
2022-12-11T01:42:23.650Z,2.90
2022-12-11T01:45:27.654Z,2.49
2022-12-11T01:48:31.308Z,2.65
2022-12-11T01:51:35.431Z,2.74
2022-12-11T01:54:39.272Z,2.55
2022-12-11T01:57:43.275Z,2.89
2022-12-11T02:00:47.356Z,2.99
2022-12-11T02:03:51.339Z,3.04
2022-12-11T02:06:55.244Z,3.02
2022-12-11T02:09:59.259Z,2.68
2022-12-11T02:13:03.195Z,2.36
2022-12-11T02:16:07.164Z,2.44
2022-12-11T02:19:10.923Z,2.41
2022-12-11T02:22:14.869Z,2.44
2022-12-11T02:25:18.748Z,2.26
2022-12-11T02:28:22.392Z,2.61
2022-12-11T02:31:26.611Z,2.24
2022-12-11T02:34:31.307Z,2.03
2022-12-11T02:37:35.186Z,2.12
2022-12-11T02:40:39.277Z,2.20
2022-12-11T02:43:42.883Z,2.25
2022-12-11T02:46:46.820Z,2.39
2022-12-11T02:49:50.822Z,2.47
2022-12-11T02:52:54.894Z,2.58
2022-12-11T02:55:58.953Z,2.47
2022-12-11T02:59:03.038Z,2.04
2022-12-11T03:02:06.825Z,2.39
2022-12-11T03:05:10.967Z,2.54
2022-12-11T03:08:15.421Z,2.57
2022-12-11T03:11:19.137Z,2.23
2022-12-11T03:14:23.005Z,1.82
2022-12-11T03:17:27.069Z,2.07
2022-12-11T03:20:31.120Z,2.22
2022-12-11T03:23:35.180Z,2.02
2022-12-11T03:26:39.173Z,2.26
2022-12-11T03:29:43.211Z,2.37
2022-12-11T03:32:47.384Z,2.60
2022-12-11T03:35:51.420Z,2.42
2022-12-11T03:38:55.304Z,2.60
2022-12-11T03:41:59.309Z,2.55
2022-12-11T03:45:03.354Z,2.65
2022-12-11T03:48:07.331Z,2.53
2022-12-11T03:51:11.293Z,2.74
2022-12-11T03:54:15.224Z,2.69
2022-12-11T03:57:19.239Z,2.56
2022-12-11T04:00:23.254Z,2.66
2022-12-11T04:03:27.204Z,2.91
2022-12-11T04:06:30.989Z,2.85
2022-12-11T04:09:34.843Z,2.97
2022-12-11T04:12:38.935Z,3.00
2022-12-11T04:15:42.841Z,2.66
2022-12-11T04:18:46.698Z,2.83
2022-12-11T04:21:50.539Z,3.01
2022-12-11T04:24:54.741Z,2.94
2022-12-11T04:27:58.965Z,3.02
2022-12-11T04:31:02.760Z,2.99
2022-12-11T04:34:07.569Z,2.33
2022-12-11T04:37:11.574Z,2.50
2022-12-11T04:40:15.572Z,1.88
2022-12-11T04:43:19.486Z,2.49
2022-12-11T04:46:23.264Z,2.52
2022-12-11T04:49:27.049Z,2.76
2022-12-11T04:52:30.907Z,1.95
2022-12-11T04:55:34.930Z,2.63
2022-12-11T04:58:38.981Z,2.74
2022-12-11T05:01:42.905Z,2.27
2022-12-11T05:04:46.809Z,2.05
2022-12-11T05:07:50.922Z,2.20
2022-12-11T05:10:54.903Z,2.12
2022-12-11T05:13:58.723Z,2.30
2022-12-11T05:17:02.669Z,2.11
2022-12-11T05:20:06.713Z,1.50
2022-12-11T05:23:10.651Z,1.66
2022-12-11T05:26:14.615Z,1.47
2022-12-11T05:29:18.583Z,1.59
2022-12-11T05:32:22.774Z,1.63
2022-12-11T05:35:26.861Z,1.65
2022-12-11T05:38:31.021Z,2.22
2022-12-11T05:41:35.013Z,2.12
2022-12-11T05:44:39.186Z,1.99
2022-12-11T05:47:42.963Z,2.14
2022-12-11T05:50:46.874Z,1.33
2022-12-11T05:53:50.884Z,1.57
2022-12-11T05:56:54.818Z,1.54
2022-12-11T05:59:58.928Z,2.09
2022-12-11T06:03:03.123Z,1.45
2022-12-11T06:06:06.846Z,1.86
2022-12-11T06:09:10.727Z,1.60
2022-12-11T06:12:14.844Z,1.98
2022-12-11T06:15:18.856Z,1.87
2022-12-11T06:18:22.807Z,1.53
2022-12-11T06:21:26.511Z,1.91
2022-12-11T06:24:30.545Z,1.74
2022-12-11T06:27:34.782Z,1.91
2022-12-11T06:30:39.668Z,1.63
2022-12-11T06:33:43.310Z,1.82
2022-12-11T06:36:47.253Z,1.61
2022-12-11T06:39:51.277Z,1.59
2022-12-11T06:42:55.387Z,1.42
2022-12-11T06:46:03.845Z,1.25
2022-12-11T06:49:08.431Z,1.27
2022-12-11T06:52:18.167Z,1.38
2022-12-11T06:55:22.720Z,1.18
2022-12-11T06:58:26.820Z,1.24
2022-12-11T07:01:30.737Z,1.38
2022-12-11T07:04:34.691Z,1.16
2022-12-11T07:07:38.661Z,1.50
2022-12-11T07:10:42.749Z,1.86
2022-12-11T07:13:46.535Z,1.56
2022-12-11T07:16:50.475Z,1.09
2022-12-11T07:19:54.560Z,1.15
2022-12-11T07:22:58.627Z,1.22
2022-12-11T07:26:02.664Z,1.72
2022-12-11T07:29:06.577Z,1.51
2022-12-11T07:32:10.679Z,1.46
2022-12-11T07:35:14.663Z,1.29
2022-12-11T07:38:18.696Z,1.59
2022-12-11T07:41:22.611Z,1.15
2022-12-11T07:44:26.719Z,1.00
2022-12-11T07:47:30.826Z,0.98
2022-12-11T07:50:39.630Z,0.87
2022-12-11T07:53:44.417Z,1.03
2022-12-11T07:56:53.204Z,0.90
2022-12-11T07:59:57.555Z,1.23
2022-12-11T08:03:01.530Z,1.01
2022-12-11T08:06:05.383Z,1.02
2022-12-11T08:09:09.339Z,1.28
2022-12-11T08:12:13.596Z,1.55
2022-12-11T08:15:17.734Z,1.83
2022-12-11T08:18:21.793Z,1.86
2022-12-11T08:21:25.613Z,1.78
2022-12-11T08:24:29.932Z,1.33
2022-12-11T08:27:34.027Z,1.22
2022-12-11T08:30:38.015Z,1.28
2022-12-11T08:33:41.873Z,1.20
2022-12-11T08:36:45.802Z,1.20
2022-12-11T08:39:49.851Z,1.29
2022-12-11T08:42:54.020Z,1.39
2022-12-11T08:45:58.114Z,1.20
2022-12-11T08:49:02.121Z,1.36
2022-12-11T08:52:06.256Z,1.46
2022-12-11T08:55:10.649Z,1.25
2022-12-11T08:58:14.502Z,1.44
2022-12-11T09:01:18.281Z,1.16
2022-12-11T09:04:22.153Z,0.96
2022-12-11T09:07:26.143Z,0.71
2022-12-11T09:10:30.127Z,1.62
2022-12-11T09:13:34.200Z,2.08
2022-12-11T09:16:38.263Z,2.04
2022-12-11T09:19:42.115Z,1.85
2022-12-11T09:22:46.146Z,1.98
2022-12-11T09:25:50.190Z,2.09
2022-12-11T09:28:54.276Z,2.39
2022-12-11T09:31:58.130Z,2.41
2022-12-11T09:35:02.064Z,2.69
2022-12-11T09:38:06.148Z,3.30
2022-12-11T09:41:10.024Z,3.33
2022-12-11T09:44:13.992Z,3.47
2022-12-11T09:47:18.097Z,3.44
2022-12-11T09:50:22.329Z,3.61
2022-12-11T09:53:29.691Z,3.66
2022-12-11T09:56:36.403Z,2.95
2022-12-11T09:59:40.355Z,3.69
2022-12-11T10:02:44.378Z,3.41
2022-12-11T10:05:48.246Z,3.86
2022-12-11T10:08:52.222Z,3.87
2022-12-11T10:11:57.107Z,3.90
2022-12-11T10:15:00.884Z,3.77
2022-12-11T10:18:05.416Z,3.50
2022-12-11T10:21:09.162Z,2.92
2022-12-11T10:24:24.259Z,3.34
2022-12-11T10:27:37.116Z,3.53
2022-12-11T10:30:41.156Z,3.59
2022-12-11T10:33:45.083Z,2.82
2022-12-11T10:36:49.226Z,3.53
2022-12-11T10:39:53.499Z,3.87
2022-12-11T10:42:57.301Z,3.91
2022-12-11T10:46:01.181Z,3.85
2022-12-11T10:49:05.375Z,4.01
2022-12-11T10:52:09.479Z,3.97
2022-12-11T10:55:13.851Z,3.74
2022-12-11T10:58:17.706Z,3.15
2022-12-11T11:01:21.907Z,2.51
2022-12-11T11:04:26.031Z,3.04
2022-12-11T11:07:29.988Z,3.09
2022-12-11T11:10:34.021Z,2.83
2022-12-11T11:13:38.193Z,2.52
2022-12-11T11:16:42.029Z,2.49
2022-12-11T11:19:46.041Z,2.85
2022-12-11T11:22:50.042Z,3.29
2022-12-11T11:25:54.204Z,3.33
2022-12-11T11:28:58.362Z,3.12
2022-12-11T11:32:02.412Z,3.02
2022-12-11T11:35:06.428Z,3.24
2022-12-11T11:38:10.802Z,3.29
2022-12-11T11:41:15.377Z,3.73
2022-12-11T11:44:20.824Z,3.80
2022-12-11T11:47:24.862Z,4.22
2022-12-11T11:50:28.760Z,4.01
2022-12-11T11:53:34.020Z,3.72
2022-12-11T11:56:38.160Z,4.07
2022-12-11T11:59:42.091Z,4.63
2022-12-11T12:02:46.120Z,4.33
2022-12-11T12:05:50.223Z,4.33
2022-12-11T12:08:54.386Z,4.39
2022-12-11T12:11:58.340Z,4.27
2022-12-11T12:15:02.319Z,4.27
2022-12-11T12:18:06.443Z,4.48
2022-12-11T12:21:10.424Z,4.39
2022-12-11T12:24:14.403Z,3.82
2022-12-11T12:27:50.397Z,4.34
2022-12-11T12:30:42.119Z,4.50
2022-12-11T12:33:46.070Z,4.35
2022-12-11T12:36:49.960Z,3.90
2022-12-11T12:39:54.069Z,4.16
2022-12-11T12:42:58.037Z,4.45
2022-12-11T12:46:01.719Z,4.45
2022-12-11T12:49:05.707Z,4.54
2022-12-11T12:52:10.107Z,4.23
2022-12-11T12:55:14.427Z,3.96
2022-12-11T12:58:18.381Z,4.05
2022-12-11T13:01:22.171Z,4.47
2022-12-11T13:04:47.462Z,4.18
2022-12-11T13:07:54.283Z,4.42
2022-12-11T13:10:58.477Z,4.12
2022-12-11T13:14:02.120Z,3.97
2022-12-11T13:17:06.297Z,4.36
2022-12-11T13:20:10.240Z,4.42
2022-12-11T13:23:14.086Z,4.40
2022-12-11T13:26:18.122Z,5.21
2022-12-11T13:29:22.028Z,5.13
2022-12-11T13:32:25.473Z,5.05
2022-12-11T13:35:29.507Z,5.82
2022-12-11T13:38:33.743Z,5.19
2022-12-11T13:41:38.017Z,5.63
2022-12-11T13:44:42.161Z,5.99
2022-12-11T13:47:46.098Z,6.03
2022-12-11T13:50:50.093Z,5.71
2022-12-11T13:53:53.994Z,4.66
2022-12-11T13:56:58.310Z,5.10
2022-12-11T14:00:02.172Z,4.91
2022-12-11T14:03:05.982Z,5.22
2022-12-11T14:06:13.332Z,5.41
2022-12-11T14:09:22.095Z,5.55
2022-12-11T14:12:26.186Z,5.68
2022-12-11T14:15:30.260Z,5.20
2022-12-11T14:18:34.433Z,5.43
2022-12-11T14:21:38.489Z,5.15
2022-12-11T14:24:42.480Z,5.06
2022-12-11T14:27:47.713Z,4.64
2022-12-11T14:30:51.818Z,4.72
2022-12-11T14:33:56.056Z,4.79
2022-12-11T14:37:00.415Z,4.87
2022-12-11T14:40:04.255Z,4.77
2022-12-11T14:43:08.307Z,4.63
2022-12-11T14:46:12.756Z,4.51
2022-12-11T14:49:17.044Z,4.45
2022-12-11T14:52:21.096Z,4.63
2022-12-11T14:55:25.172Z,4.37
2022-12-11T14:58:29.273Z,4.40
2022-12-11T15:01:34.336Z,4.18
2022-12-11T15:04:38.506Z,3.66
2022-12-11T15:07:42.610Z,3.85
2022-12-11T15:10:49.574Z,3.67
2022-12-11T15:13:56.509Z,4.01
2022-12-11T15:17:00.715Z,3.90
2022-12-11T15:20:06.835Z,3.40
2022-12-11T15:23:15.498Z,3.43
2022-12-11T15:26:22.649Z,3.50
2022-12-11T15:29:27.695Z,3.87
2022-12-11T15:32:34.142Z,3.77
2022-12-11T15:35:38.053Z,3.77
2022-12-11T15:38:41.854Z,4.05
2022-12-11T15:41:45.577Z,3.76
2022-12-11T15:44:49.522Z,3.62
2022-12-11T15:47:53.975Z,2.94
2022-12-11T15:50:57.709Z,3.12
2022-12-11T15:54:01.820Z,3.07
2022-12-11T15:57:06.140Z,3.30
2022-12-11T16:00:13.029Z,3.03
2022-12-11T16:03:16.988Z,2.77
2022-12-11T16:06:21.292Z,3.11
2022-12-11T16:09:25.276Z,3.07
2022-12-11T16:12:29.342Z,2.88
2022-12-11T16:15:33.528Z,3.15
2022-12-11T16:18:37.764Z,3.11
2022-12-11T16:21:41.848Z,2.42
2022-12-11T16:24:45.751Z,2.62
2022-12-11T16:27:49.799Z,2.66
2022-12-11T16:30:53.889Z,2.55
2022-12-11T16:33:57.893Z,2.67
2022-12-11T16:37:02.806Z,2.82
2022-12-11T16:40:06.532Z,2.55
2022-12-11T16:43:10.641Z,2.59
2022-12-11T16:46:15.066Z,2.68
2022-12-11T16:49:19.160Z,2.79
2022-12-11T16:52:23.080Z,2.91
2022-12-11T16:55:27.121Z,2.75
2022-12-11T16:58:31.056Z,2.83
2022-12-11T17:01:35.132Z,2.43
2022-12-11T17:04:39.087Z,2.27
2022-12-11T17:07:42.878Z,1.90
2022-12-11T17:10:46.813Z,1.94
2022-12-11T17:13:51.069Z,2.12
2022-12-11T17:16:54.999Z,2.20
2022-12-11T17:19:58.869Z,2.23
2022-12-11T17:23:02.953Z,2.20
2022-12-11T17:26:06.799Z,1.98
2022-12-11T17:29:10.895Z,2.14
2022-12-11T17:32:14.842Z,2.19
2022-12-11T17:35:18.988Z,2.09
2022-12-11T17:38:23.104Z,2.06
2022-12-11T17:41:27.311Z,2.32
2022-12-11T17:44:31.570Z,2.15
2022-12-11T17:47:35.216Z,2.66
2022-12-11T17:50:39.276Z,2.92
2022-12-11T17:53:43.548Z,3.14
2022-12-11T17:56:47.475Z,3.01
2022-12-11T17:59:51.533Z,2.93
2022-12-11T18:02:58.978Z,2.92
2022-12-11T18:06:03.182Z,3.03
2022-12-11T18:09:07.600Z,3.01
2022-12-11T18:12:13.919Z,2.95
2022-12-11T18:15:21.018Z,2.94
2022-12-11T18:18:25.340Z,2.90
2022-12-11T18:21:29.397Z,2.99
2022-12-11T18:24:32.999Z,2.85
2022-12-11T18:27:37.137Z,2.31
2022-12-11T18:30:41.164Z,2.40
2022-12-11T18:33:45.270Z,2.81
2022-12-11T18:36:53.255Z,2.64
2022-12-11T18:39:57.389Z,2.14
2022-12-11T18:43:01.478Z,1.78
2022-12-11T18:46:05.646Z,1.86
2022-12-11T18:49:09.674Z,2.19
2022-12-11T18:52:14.025Z,1.71
2022-12-11T18:55:17.907Z,1.41
2022-12-11T18:58:22.049Z,1.01
2022-12-11T19:01:26.068Z,1.47
2022-12-11T19:04:30.376Z,1.79
2022-12-11T19:07:34.379Z,2.21
2022-12-11T19:10:38.451Z,2.26
2022-12-11T19:13:42.614Z,1.77
2022-12-11T19:16:46.611Z,1.43
2022-12-11T19:19:50.880Z,1.38
2022-12-11T19:22:54.878Z,1.67
2022-12-11T19:25:58.820Z,1.99
2022-12-11T19:29:03.080Z,1.23
2022-12-11T19:32:07.406Z,1.01
2022-12-11T19:35:11.782Z,1.06
2022-12-11T19:38:15.824Z,1.74
2022-12-11T19:41:19.490Z,0.89
2022-12-11T19:44:23.350Z,0.85
2022-12-11T19:47:27.512Z,0.99
2022-12-11T19:50:31.655Z,1.08
2022-12-11T19:53:35.262Z,1.61
2022-12-11T19:56:39.200Z,1.79
2022-12-11T19:59:43.361Z,2.05
2022-12-11T20:02:47.678Z,2.47
2022-12-11T20:05:51.729Z,2.76
2022-12-11T20:08:55.559Z,2.82
2022-12-11T20:11:59.661Z,2.93
2022-12-11T20:15:03.752Z,3.03
2022-12-11T20:18:07.679Z,3.11
2022-12-11T20:21:11.542Z,3.15
2022-12-11T20:24:16.468Z,3.11
2022-12-11T20:27:20.498Z,3.11
2022-12-11T20:30:24.403Z,3.27
2022-12-11T20:33:28.508Z,2.67
2022-12-11T20:36:32.644Z,3.07
2022-12-11T20:39:36.881Z,3.01
2022-12-11T20:42:41.411Z,2.65
2022-12-11T20:45:45.676Z,2.38
2022-12-11T20:48:49.759Z,2.19
2022-12-11T20:51:53.633Z,2.51
2022-12-11T20:54:57.455Z,2.47
2022-12-11T20:58:01.664Z,2.93
2022-12-11T21:01:05.970Z,3.09
2022-12-11T21:04:09.951Z,2.89
2022-12-11T21:07:16.062Z,2.32
2022-12-11T21:10:20.223Z,2.82
2022-12-11T21:13:24.459Z,3.04
2022-12-11T21:16:28.706Z,2.89
2022-12-11T21:19:32.395Z,2.70
2022-12-11T21:22:36.506Z,2.32
2022-12-11T21:25:40.713Z,2.38
2022-12-11T21:28:44.754Z,2.43
2022-12-11T21:31:48.594Z,2.92
2022-12-11T21:34:52.502Z,2.81
2022-12-11T21:37:56.821Z,3.06
2022-12-11T21:41:01.090Z,3.25
2022-12-11T21:47:28.599Z,2.45
2022-12-11T21:50:32.696Z,2.33
2022-12-11T21:53:36.770Z,2.61
2022-12-11T21:56:40.943Z,2.44
2022-12-11T21:59:45.119Z,2.98
2022-12-11T22:02:49.417Z,2.85
2022-12-11T22:05:53.129Z,2.25
2022-12-11T22:08:56.957Z,2.22
2022-12-11T22:12:01.033Z,2.40
2022-12-11T22:15:05.259Z,2.97
2022-12-11T22:18:09.143Z,3.01
2022-12-11T22:21:13.131Z,3.09
2022-12-11T22:24:17.066Z,3.26
2022-12-11T22:27:23.913Z,3.43
2022-12-11T22:30:28.342Z,3.43
2022-12-11T22:33:32.300Z,3.41
2022-12-11T22:36:36.098Z,3.45
2022-12-11T22:39:40.034Z,3.41
2022-12-11T22:42:44.271Z,3.55
2022-12-11T22:45:48.400Z,2.37
2022-12-11T22:48:52.457Z,2.47
2022-12-11T22:51:56.171Z,3.08
2022-12-11T22:55:00.086Z,3.16
2022-12-11T22:58:04.455Z,3.36
2022-12-11T23:01:08.620Z,3.20
2022-12-11T23:04:12.325Z,3.52
2022-12-11T23:07:16.067Z,3.37
2022-12-11T23:10:19.744Z,3.53
2022-12-11T23:13:23.848Z,3.49
2022-12-11T23:16:27.821Z,3.43
2022-12-11T23:19:31.711Z,3.26
2022-12-11T23:22:36.052Z,2.66
2022-12-11T23:25:40.564Z,3.18
2022-12-11T23:28:44.570Z,3.13
2022-12-11T23:31:48.435Z,3.29
2022-12-11T23:34:52.132Z,3.52
2022-12-11T23:37:56.212Z,3.74
2022-12-11T23:41:00.446Z,3.66
2022-12-11T23:44:04.605Z,3.75
2022-12-11T23:47:08.412Z,3.42
2022-12-11T23:50:12.615Z,2.51
2022-12-11T23:53:16.519Z,2.31
2022-12-11T23:56:20.478Z,2.01
2022-12-11T23:59:24.496Z,2.77
